Date,TemperatureHighF,TemperatureAvgF,TemperatureLowF,DewpointHighF,DewpointAvgF,DewpointLowF,HumidityHigh,HumidityAvg,HumidityLow,PressureMaxIn,PressureMinIn,WindSpeedMaxMPH,WindSpeedAvgMPH,GustSpeedMaxMPH,PrecipitationSumIn
2013-4-1,47.0,32.9,24.0,24.0,20.6,15.0,90,64,31,30.22,30.11,19,7,0,0.00
2013-4-2,53.0,36.5,19.0,22.0,16.8,13.0,83,49,22,30.16,30.06,24,9,0,0.00
2013-4-3,70.0,48.5,27.0,32.0,23.1,17.0,75,43,14,30.13,29.87,37,17,0,0.00
2013-4-4,52.0,38.6,25.0,25.0,15.0,6.0,71,41,19,30.19,30.00,27,12,0,0.00
2013-4-5,66.0,45.8,30.0,30.0,23.7,14.0,65,44,22,30.00,29.50,27,14,0,0.00
2013-4-6,64.0,52.0,40.0,44.0,32.3,20.0,97,54,19,29.80,29.64,38,19,0,0.00
2013-4-7,56.0,40.3,29.0,41.0,32.0,29.0,98,76,40,29.79,29.56,19,10,0,0.00
2013-4-8,41.0,32.2,15.0,38.0,31.2,14.0,98,96,80,30.07,29.56,33,13,0,0.00
2013-4-9,17.0,12.8,9.0,16.0,10.6,6.0,97,91,83,30.28,30.01,7,5,0,0.00
2013-4-10,25.0,19.9,15.0,21.0,17.8,14.0,98,91,76,30.21,29.90,5,4,0,0.00
2013-4-11,30.0,23.5,18.0,26.0,20.9,17.0,98,90,72,29.93,29.74,21,6,0,0.00
2013-4-12,28.0,27.1,27.0,26.0,24.7,23.0,94,91,82,29.87,29.80,12,7,0,0.00
2013-4-13,39.0,31.3,23.0,33.0,28.1,21.0,98,88,72,29.91,29.38,31,17,0,0.00
2013-4-14,36.0,31.5,22.0,34.0,26.1,16.0,98,82,50,29.73,29.32,46,26,0,0.00
2013-4-15,33.0,26.8,20.0,21.0,17.3,14.0,84,68,47,30.08,29.69,42,22,0,0.00
2013-4-16,31.0,26.7,23.0,28.0,22.0,16.0,98,83,57,30.23,30.03,18,8,0,0.00
2013-4-17,28.0,24.6,22.0,26.0,23.3,21.0,98,95,79,30.23,30.10,23,15,0,0.00
2013-4-18,35.0,26.3,21.0,22.0,18.0,14.0,97,72,44,30.14,29.96,38,21,0,0.00
2013-4-19,42.0,31.8,23.0,25.0,19.4,15.0,87,62,35,30.02,29.88,20,10,0,0.00
2013-4-20,55.0,36.7,26.0,36.0,26.4,16.0,97,68,41,29.98,29.83,29,16,0,0.00
2013-4-21,39.0,36.8,31.0,39.0,36.1,31.0,98,97,91,29.94,29.86,17,10,0,0.00
2013-4-22,28.0,25.0,20.0,25.0,20.5,17.0,98,83,67,30.36,30.25,27,15,0,0.00
2013-4-23,36.0,24.4,12.0,20.0,15.7,10.0,94,72,42,30.35,30.06,17,10,0,0.00
2013-4-24,42.0,33.4,24.0,32.0,22.0,16.0,98,64,36,30.12,29.99,52,20,0,0.00
2013-4-25,68.0,47.4,28.0,29.0,20.9,10.0,78,42,11,30.09,29.76,27,13,0,0.00
2013-4-26,70.0,54.4,38.0,31.0,23.6,19.0,61,33,16,30.11,29.89,14,7,0,0.00
2013-4-27,76.0,61.0,43.0,31.0,25.5,17.0,53,29,12,30.09,29.77,23,12,0,0.00
2013-4-28,67.0,57.6,45.0,43.0,31.1,25.0,80,38,21,29.93,29.70,35,16,0,0.00
2013-4-29,73.0,57.4,41.0,43.0,32.5,22.0,87,45,15,29.93,29.31,34,13,0,0.00
2013-4-30,54.0,45.9,39.0,37.0,23.5,15.0,78,45,23,30.13,29.54,40,21,0,0.00